Time;durP1;ratioP1;P1;durP2;ratioP2;P2;SDS_P1;SDS_P2;PMS_P1;PMS_P2;Temp;Humidity;BMP_temperature;BMP_pressure;BME280_temperature;BME280_humidity;BME280_pressure;Samples;Min_cycle;Max_cycle;Signal;HPM_P1;HPM_P2
2021/08/06 00:01:29;;;;;;;18.70;12.10;;;;;;;;;;4914108;29;20476;-72
2021/08/06 00:03:55;;;;;;;19.25;11.35;;;;;;;;;;4912123;29;20028;-72
2021/08/06 00:06:26;;;;;;;16.65;10.25;;;;;;;;;;4912349;29;20032;-72
2021/08/06 00:08:52;;;;;;;22.40;12.18;;;;;;;;;;4913679;29;20032;-72
2021/08/06 00:11:18;;;;;;;18.10;12.00;;;;;;;;;;4913421;29;20039;-72
2021/08/06 00:13:43;;;;;;;20.05;11.27;;;;;;;;;;4913930;29;20028;-72
2021/08/06 00:16:09;;;;;;;22.50;13.65;;;;;;;;;;4912354;29;20476;-73
2021/08/06 00:18:34;;;;;;;17.08;11.55;;;;;;;;;;4912201;29;20495;-73
2021/08/06 00:21:00;;;;;;;20.95;11.63;;;;;;;;;;4913298;29;20547;-72
2021/08/06 00:23:28;;;;;;;17.63;11.95;;;;;;;;;;4912324;29;20501;-72
2021/08/06 00:25:54;;;;;;;21.83;12.10;;;;;;;;;;4908937;29;20051;-73
2021/08/06 00:28:19;;;;;;;20.73;11.48;;;;;;;;;;4907330;29;20044;-73
2021/08/06 00:30:44;;;;;;;17.42;11.68;;;;;;;;;;4914271;29;20428;-72
2021/08/06 00:33:10;;;;;;;20.38;12.13;;;;;;;;;;4915872;29;20058;-73
2021/08/06 00:35:35;;;;;;;22.77;12.57;;;;;;;;;;4915642;29;20111;-71
2021/08/06 00:38:01;;;;;;;15.88;11.52;;;;;;;;;;4917509;29;20389;-75
2021/08/06 00:40:26;;;;;;;26.67;12.88;;;;;;;;;;4928811;29;20495;-75
2021/08/06 00:42:52;;;;;;;20.60;12.45;;;;;;;;;;4913003;29;20047;-74
2021/08/06 00:45:18;;;;;;;22.52;13.32;;;;;;;;;;4912635;29;20035;-76
2021/08/06 00:47:44;;;;;;;17.83;11.85;;;;;;;;;;4911775;29;20440;-75
2021/08/06 00:50:11;;;;;;;19.60;11.98;;;;;;;;;;4911137;29;20055;-76
2021/08/06 00:52:36;;;;;;;21.48;12.45;;;;;;;;;;4912720;29;20031;-75
2021/08/06 00:55:04;;;;;;;20.42;13.05;;;;;;;;;;4910870;29;20456;-75
2021/08/06 00:57:30;;;;;;;18.80;11.95;;;;;;;;;;4912864;29;20086;-75
2021/08/06 00:59:55;;;;;;;19.20;12.85;;;;;;;;;;4910964;29;20056;-73
2021/08/06 01:02:25;;;;;;;21.25;12.82;;;;;;;;;;4914481;29;20076;-74
2021/08/06 01:05:06;;;;;;;22.70;13.43;;;;;;;;;;4930391;29;20036;-73
2021/08/06 01:07:49;;;;;;;23.52;12.77;;;;;;;;;;4914389;29;20050;-73
2021/08/06 01:10:16;;;;;;;25.08;13.00;;;;;;;;;;4903602;29;20024;-73
2021/08/06 01:12:59;;;;;;;21.65;13.27;;;;;;;;;;4915685;29;20040;-73
2021/08/06 01:15:26;;;;;;;23.90;14.15;;;;;;;;;;4914242;29;20032;-73
2021/08/06 01:17:53;;;;;;;24.42;14.07;;;;;;;;;;4914145;29;20032;-73
2021/08/06 01:20:24;;;;;;;25.92;14.40;;;;;;;;;;4914021;29;20070;-73
2021/08/06 01:22:59;;;;;;;;;;;;;;;;;;4915087;29;20032;-74
2021/08/06 01:25:55;;;;;;;23.45;13.05;;;;;;;;;;4924134;29;20380;-73
2021/08/06 01:28:24;;;;;;;20.23;11.85;;;;;;;;;;4914749;29;20515;-73
2021/08/06 01:30:51;;;;;;;25.13;12.95;;;;;;;;;;4914201;29;20066;-73
2021/08/06 01:33:18;;;;;;;20.85;11.90;;;;;;;;;;4914226;29;20031;-73
2021/08/06 01:35:44;;;;;;;19.80;11.93;;;;;;;;;;4915282;29;20032;-75
2021/08/06 01:38:10;;;;;;;19.50;11.82;;;;;;;;;;4913590;29;20555;-73
2021/08/06 01:40:53;;;;;;;23.88;11.73;;;;;;;;;;4913831;29;20063;-74
2021/08/06 01:43:42;;;;;;;22.02;13.48;;;;;;;;;;4913583;29;20059;-74
2021/08/06 01:46:36;;;;;;;20.88;12.30;;;;;;;;;;4913291;29;20020;-74
2021/08/06 01:49:08;;;;;;;17.13;12.32;;;;;;;;;;4929345;29;20486;-74
2021/08/06 01:51:37;;;;;;;24.98;15.45;;;;;;;;;;4913787;29;20480;-73
2021/08/06 01:54:03;;;;;;;27.48;19.52;;;;;;;;;;4914819;29;20051;-74
2021/08/06 01:56:31;;;;;;;16.42;12.57;;;;;;;;;;4929553;29;20032;-74
2021/08/06 01:58:57;;;;;;;26.02;12.30;;;;;;;;;;4915011;29;20032;-74
2021/08/06 02:01:23;;;;;;;18.48;14.13;;;;;;;;;;4914710;29;20040;-74
2021/08/06 02:03:49;;;;;;;24.25;12.55;;;;;;;;;;4913328;29;20476;-74
2021/08/06 02:06:18;;;;;;;21.73;13.52;;;;;;;;;;4914604;29;20035;-73
2021/08/06 02:08:44;;;;;;;17.52;12.00;;;;;;;;;;4915027;29;20036;-72
2021/08/06 02:11:10;;;;;;;25.52;12.23;;;;;;;;;;4915383;29;20059;-73
2021/08/06 02:13:37;;;;;;;21.08;12.32;;;;;;;;;;4929196;29;20058;-73
2021/08/06 02:16:04;;;;;;;20.17;11.40;;;;;;;;;;4915010;29;20262;-73
2021/08/06 02:18:32;;;;;;;17.92;11.40;;;;;;;;;;4911243;29;20036;-71
2021/08/06 02:21:01;;;;;;;21.60;12.55;;;;;;;;;;4915471;29;20032;-72
2021/08/06 02:23:28;;;;;;;17.50;11.52;;;;;;;;;;4913621;29;20028;-73
2021/08/06 02:25:55;;;;;;;16.90;11.27;;;;;;;;;;4913687;29;20063;-72
2021/08/06 02:28:22;;;;;;;25.95;12.38;;;;;;;;;;4913397;29;20032;-71
2021/08/06 02:30:50;;;;;;;17.75;11.80;;;;;;;;;;4929216;29;20028;-72
2021/08/06 02:33:16;;;;;;;19.40;12.90;;;;;;;;;;4913323;29;20036;-71
2021/08/06 02:35:42;;;;;;;18.73;12.07;;;;;;;;;;4910526;29;20457;-71
2021/08/06 02:38:07;;;;;;;19.85;12.27;;;;;;;;;;4908346;29;20024;-72
2021/08/06 02:40:33;;;;;;;19.00;11.95;;;;;;;;;;4914856;29;20032;-71
2021/08/06 02:42:59;;;;;;;22.58;11.73;;;;;;;;;;4914811;29;20032;-72
2021/08/06 02:45:24;;;;;;;20.20;12.32;;;;;;;;;;4914735;29;20039;-73
2021/08/06 02:47:50;;;;;;;21.83;12.63;;;;;;;;;;4913293;29;20169;-73
2021/08/06 02:50:16;;;;;;;24.85;12.88;;;;;;;;;;4914064;29;20028;-73
2021/08/06 02:52:42;;;;;;;23.67;13.30;;;;;;;;;;4929003;29;20365;-72
2021/08/06 02:55:08;;;;;;;19.70;12.60;;;;;;;;;;4913985;29;20024;-73
2021/08/06 02:57:34;;;;;;;22.30;12.02;;;;;;;;;;4910279;29;20044;-73
2021/08/06 03:00:00;;;;;;;25.35;13.10;;;;;;;;;;4912904;29;20031;-73
2021/08/06 03:02:25;;;;;;;22.08;14.57;;;;;;;;;;4914046;29;20038;-72
2021/08/06 03:04:51;;;;;;;28.98;14.10;;;;;;;;;;4928378;29;20392;-72
2021/08/06 03:07:20;;;;;;;23.10;12.93;;;;;;;;;;4912392;29;20032;-73
2021/08/06 03:09:46;;;;;;;23.27;14.43;;;;;;;;;;4897145;29;20081;-72
2021/08/06 03:12:11;;;;;;;24.45;13.73;;;;;;;;;;4907570;29;20067;-72
2021/08/06 03:14:37;;;;;;;30.35;14.63;;;;;;;;;;4912722;29;20601;-72
2021/08/06 03:17:03;;;;;;;23.70;13.68;;;;;;;;;;4913610;29;20032;-73
2021/08/06 03:19:29;;;;;;;26.48;13.63;;;;;;;;;;4901246;29;20087;-73
2021/08/06 03:21:54;;;;;;;21.50;12.20;;;;;;;;;;4913372;29;20107;-73
2021/08/06 03:24:20;;;;;;;21.88;12.80;;;;;;;;;;4912409;29;20066;-72
2021/08/06 03:26:45;;;;;;;24.75;14.50;;;;;;;;;;4913454;29;20028;-73
2021/08/06 03:29:11;;;;;;;24.23;14.07;;;;;;;;;;4913405;29;20377;-73
2021/08/06 03:31:36;;;;;;;23.33;13.27;;;;;;;;;;4912148;29;20128;-72
2021/08/06 03:34:02;;;;;;;23.67;13.48;;;;;;;;;;4913423;29;20491;-73
2021/08/06 03:36:27;;;;;;;26.17;15.00;;;;;;;;;;4908998;29;20029;-72
2021/08/06 03:38:53;;;;;;;28.25;15.65;;;;;;;;;;4912102;29;20108;-72
2021/08/06 03:41:18;;;;;;;31.35;15.35;;;;;;;;;;4911831;29;20369;-72
2021/08/06 03:43:44;;;;;;;36.55;17.58;;;;;;;;;;4913523;29;20032;-72
2021/08/06 03:46:09;;;;;;;32.15;15.32;;;;;;;;;;4912115;29;20503;-72
2021/08/06 03:48:35;;;;;;;43.30;16.50;;;;;;;;;;4913786;29;20027;-73
2021/08/06 03:51:01;;;;;;;36.40;15.85;;;;;;;;;;4912437;29;20504;-73
2021/08/06 03:53:26;;;;;;;29.15;14.95;;;;;;;;;;4908960;29;20036;-73
2021/08/06 03:55:52;;;;;;;38.45;14.60;;;;;;;;;;4912318;29;20051;-72
2021/08/06 03:58:17;;;;;;;26.30;13.60;;;;;;;;;;4913355;29;20047;-73
2021/08/06 04:00:43;;;;;;;44.80;13.30;;;;;;;;;;4913479;29;20032;-72
2021/08/06 04:03:08;;;;;;;19.63;11.95;;;;;;;;;;4911969;29;20051;-73
2021/08/06 04:05:34;;;;;;;19.58;11.40;;;;;;;;;;4912153;29;20032;-71
2021/08/06 04:08:07;;;;;;;18.10;10.55;;;;;;;;;;4913300;29;20365;-72
2021/08/06 04:10:33;;;;;;;14.73;9.05;;;;;;;;;;4914088;29;20372;-71
2021/08/06 04:12:59;;;;;;;16.75;9.90;;;;;;;;;;4913683;29;20032;-72
2021/08/06 04:15:25;;;;;;;16.77;9.90;;;;;;;;;;4911956;29;20747;-73
2021/08/06 04:17:50;;;;;;;20.40;11.15;;;;;;;;;;4913139;29;20107;-70
2021/08/06 04:20:16;;;;;;;17.95;11.48;;;;;;;;;;4911818;29;20034;-72
2021/08/06 04:22:42;;;;;;;17.20;10.20;;;;;;;;;;4913738;29;20059;-71
2021/08/06 04:25:09;;;;;;;15.32;10.60;;;;;;;;;;4913119;29;20052;-72
2021/08/06 04:27:35;;;;;;;24.80;11.32;;;;;;;;;;4911852;29;20095;-72
2021/08/06 04:30:01;;;;;;;18.30;11.30;;;;;;;;;;4913504;29;20512;-72
2021/08/06 04:32:26;;;;;;;23.10;10.68;;;;;;;;;;4910535;29;20041;-73
2021/08/06 04:34:51;;;;;;;17.55;10.88;;;;;;;;;;4913187;29;20068;-73
2021/08/06 04:37:17;;;;;;;23.40;10.13;;;;;;;;;;4916757;29;20409;-72
2021/08/06 04:39:42;;;;;;;17.67;10.07;;;;;;;;;;4916903;29;20028;-73
2021/08/06 04:42:08;;;;;;;12.55;8.02;;;;;;;;;;4916795;29;20044;-74
2021/08/06 04:44:38;;;;;;;14.40;8.40;;;;;;;;;;4916520;29;20468;-72
2021/08/06 04:47:04;;;;;;;18.83;10.10;;;;;;;;;;4915381;29;20028;-72
2021/08/06 04:49:29;;;;;;;23.02;10.25;;;;;;;;;;4930991;29;20365;-72
2021/08/06 04:51:55;;;;;;;14.18;9.35;;;;;;;;;;4915161;29;20032;-72
2021/08/06 04:54:21;;;;;;;11.98;8.38;;;;;;;;;;4916213;29;20477;-74
2021/08/06 04:56:47;;;;;;;19.75;13.38;;;;;;;;;;4916315;29;20091;-73
2021/08/06 04:59:12;;;;;;;16.33;9.07;;;;;;;;;;4903414;29;20036;-73
2021/08/06 05:01:38;;;;;;;11.82;8.07;;;;;;;;;;4915178;29;20024;-72
2021/08/06 05:04:04;;;;;;;14.40;8.73;;;;;;;;;;4914852;29;20024;-72
2021/08/06 05:06:29;;;;;;;15.68;8.93;;;;;;;;;;4916369;29;20092;-72
2021/08/06 05:08:55;;;;;;;16.05;9.43;;;;;;;;;;4916234;29;20103;-73
2021/08/06 05:11:22;;;;;;;24.27;11.95;;;;;;;;;;4915907;29;20123;-72
2021/08/06 05:13:47;;;;;;;26.98;10.20;;;;;;;;;;4914203;29;20492;-73
2021/08/06 05:16:13;;;;;;;27.73;12.38;;;;;;;;;;4915437;29;20020;-73
2021/08/06 05:18:38;;;;;;;17.92;9.88;;;;;;;;;;4910453;29;20071;-72
2021/08/06 05:21:04;;;;;;;18.05;7.60;;;;;;;;;;4930201;29;20083;-73
2021/08/06 05:23:30;;;;;;;14.68;8.40;;;;;;;;;;4918151;29;20068;-72
2021/08/06 05:25:56;;;;;;;16.35;6.88;;;;;;;;;;4912625;29;20052;-74
2021/08/06 05:28:21;;;;;;;14.05;6.85;;;;;;;;;;4908439;29;20151;-72
2021/08/06 05:43:43;;;;;;;14.45;8.70;;;;;;;;;;4892151;23;20061;-76
2021/08/06 05:46:10;;;;;;;15.27;7.63;;;;;;;;;;4876799;29;20041;-76
2021/08/06 05:48:35;;;;;;;13.38;7.45;;;;;;;;;;4875518;29;20112;-77
2021/08/06 05:51:01;;;;;;;15.65;8.65;;;;;;;;;;4877434;29;20041;-76
2021/08/06 05:53:27;;;;;;;14.93;8.52;;;;;;;;;;4875405;29;20040;-74
2021/08/06 05:55:52;;;;;;;18.38;8.80;;;;;;;;;;4876187;29;20052;-76
2021/08/06 05:58:18;;;;;;;14.63;8.63;;;;;;;;;;4877653;29;20033;-76
2021/08/06 06:00:43;;;;;;;15.90;8.60;;;;;;;;;;4875492;29;20096;-72
2021/08/06 06:03:09;;;;;;;17.67;11.07;;;;;;;;;;4875472;29;20033;-74
2021/08/06 06:05:34;;;;;;;19.05;11.07;;;;;;;;;;4885951;29;20065;-75
2021/08/06 06:08:00;;;;;;;21.48;9.57;;;;;;;;;;4881223;29;20068;-75
2021/08/06 06:10:25;;;;;;;19.92;9.75;;;;;;;;;;4874176;29;20469;-74
2021/08/06 06:12:51;;;;;;;15.93;9.80;;;;;;;;;;4872960;29;20033;-76
2021/08/06 06:15:17;;;;;;;18.10;9.82;;;;;;;;;;4877098;29;20040;-76
2021/08/06 06:17:44;;;;;;;23.98;12.60;;;;;;;;;;4880426;29;20123;-77
2021/08/06 06:20:13;;;;;;;58.17;20.27;;;;;;;;;;4882504;29;20052;-75
2021/08/06 06:22:39;;;;;;;22.55;12.40;;;;;;;;;;4875475;29;20037;-76
2021/08/06 06:25:05;;;;;;;21.23;11.25;;;;;;;;;;4874481;29;20041;-75
2021/08/06 06:27:31;;;;;;;23.15;12.13;;;;;;;;;;4879160;29;20035;-75
2021/08/06 06:29:56;;;;;;;24.77;11.50;;;;;;;;;;4887707;29;20412;-75
2021/08/06 06:32:23;;;;;;;24.73;11.77;;;;;;;;;;4882369;29;20136;-76
2021/08/06 06:34:48;;;;;;;25.15;14.05;;;;;;;;;;4878622;29;20040;-72
2021/08/06 06:37:14;;;;;;;21.83;13.13;;;;;;;;;;4872962;29;20037;-74
2021/08/06 06:39:39;;;;;;;22.08;13.18;;;;;;;;;;4876002;29;20462;-73
2021/08/06 06:42:05;;;;;;;25.48;12.63;;;;;;;;;;4875488;29;20144;-73
2021/08/06 06:44:30;;;;;;;21.48;11.95;;;;;;;;;;4877288;29;20152;-72
2021/08/06 06:46:56;;;;;;;21.05;12.82;;;;;;;;;;4872574;29;20041;-72
2021/08/06 06:49:22;;;;;;;23.73;14.15;;;;;;;;;;4889706;29;20092;-72
2021/08/06 06:51:47;;;;;;;23.55;12.68;;;;;;;;;;4891705;29;20039;-72
2021/08/06 06:54:12;;;;;;;19.67;12.38;;;;;;;;;;4890199;29;20469;-74
2021/08/06 06:56:38;;;;;;;20.83;12.05;;;;;;;;;;4882072;29;20044;-73
2021/08/06 06:59:03;;;;;;;26.17;13.35;;;;;;;;;;4865492;29;20044;-74
2021/08/06 07:01:29;;;;;;;21.50;13.45;;;;;;;;;;4856063;29;20056;-73
2021/08/06 07:03:54;;;;;;;26.90;13.90;;;;;;;;;;4866562;29;20058;-74
2021/08/06 07:06:20;;;;;;;23.23;12.43;;;;;;;;;;4868084;29;20037;-75
2021/08/06 07:08:46;;;;;;;22.25;12.07;;;;;;;;;;4869237;29;20507;-73
2021/08/06 07:11:12;;;;;;;26.65;12.75;;;;;;;;;;4869919;29;20469;-72
2021/08/06 07:13:40;;;;;;;18.42;12.13;;;;;;;;;;4867256;29;20473;-72
2021/08/06 07:16:06;;;;;;;27.33;12.73;;;;;;;;;;4866077;29;20454;-73
2021/08/06 07:18:32;;;;;;;20.25;11.18;;;;;;;;;;4881576;29;20393;-74
2021/08/06 07:21:01;;;;;;;20.92;13.07;;;;;;;;;;4870385;29;20032;-73
2021/08/06 07:23:30;;;;;;;23.63;12.60;;;;;;;;;;4864757;29;20723;-73
2021/08/06 07:25:56;;;;;;;27.30;12.90;;;;;;;;;;4868210;29;20073;-71
2021/08/06 07:28:22;;;;;;;48.45;14.32;;;;;;;;;;4863277;29;20049;-72
2021/08/06 07:30:48;;;;;;;22.42;12.30;;;;;;;;;;4869573;29;20434;-71
2021/08/06 07:33:13;;;;;;;21.42;11.20;;;;;;;;;;4869111;29;20044;-72
2021/08/06 07:35:39;;;;;;;24.15;13.35;;;;;;;;;;4871866;29;20032;-72
2021/08/06 07:38:05;;;;;;;20.58;11.57;;;;;;;;;;4866641;29;20113;-73
2021/08/06 07:40:31;;;;;;;22.15;11.98;;;;;;;;;;4870481;29;20045;-73
2021/08/06 07:42:56;;;;;;;26.42;13.27;;;;;;;;;;4870366;29;20051;-73
2021/08/06 07:45:23;;;;;;;25.13;13.63;;;;;;;;;;4866502;29;20036;-74
2021/08/06 07:47:49;;;;;;;28.15;13.05;;;;;;;;;;4870712;29;20377;-73
2021/08/06 07:50:16;;;;;;;28.83;13.73;;;;;;;;;;4869239;29;20033;-75
2021/08/06 07:52:41;;;;;;;28.60;15.88;;;;;;;;;;4871875;29;20028;-72
2021/08/06 07:55:09;;;;;;;25.90;15.20;;;;;;;;;;4868589;29;20041;-74
2021/08/06 07:57:36;;;;;;;25.52;13.77;;;;;;;;;;4863213;29;20457;-73
2021/08/06 08:00:02;;;;;;;26.58;13.00;;;;;;;;;;4883526;29;20069;-73
2021/08/06 08:02:28;;;;;;;21.38;13.38;;;;;;;;;;4865968;29;20561;-74
2021/08/06 08:04:53;;;;;;;23.50;12.40;;;;;;;;;;4865968;29;20048;-73
2021/08/06 08:07:19;;;;;;;24.63;13.13;;;;;;;;;;4870460;29;20057;-72
2021/08/06 08:09:45;;;;;;;30.80;13.75;;;;;;;;;;4870539;29;20105;-72
2021/08/06 08:12:10;;;;;;;23.38;12.90;;;;;;;;;;4872814;29;20036;-72
2021/08/06 08:14:36;;;;;;;24.70;13.20;;;;;;;;;;4868482;29;20749;-73
2021/08/06 08:17:03;;;;;;;32.28;17.55;;;;;;;;;;4874260;29;20870;-73
2021/08/06 08:19:28;;;;;;;25.67;14.98;;;;;;;;;;4873772;29;20151;-73
2021/08/06 08:21:54;;;;;;;19.27;12.68;;;;;;;;;;4875123;29;20264;-74
2021/08/06 08:24:20;;;;;;;29.20;13.15;;;;;;;;;;4868232;29;20041;-72
2021/08/06 08:26:45;;;;;;;21.35;11.93;;;;;;;;;;4872541;29;20037;-72
2021/08/06 08:29:11;;;;;;;19.60;12.38;;;;;;;;;;4853029;29;20804;-72
2021/08/06 08:31:37;;;;;;;21.38;12.60;;;;;;;;;;4875367;29;20041;-74
2021/08/06 08:34:03;;;;;;;19.92;11.48;;;;;;;;;;4872839;29;20043;-73
2021/08/06 08:36:29;;;;;;;19.45;11.02;;;;;;;;;;4874998;29;20081;-73
2021/08/06 08:38:55;;;;;;;16.58;10.13;;;;;;;;;;4875365;29;20060;-72
2021/08/06 08:41:22;;;;;;;18.70;9.52;;;;;;;;;;4883165;29;20044;-73
2021/08/06 08:43:48;;;;;;;13.93;8.57;;;;;;;;;;4857185;29;20040;-74
2021/08/06 08:46:16;;;;;;;15.77;10.73;;;;;;;;;;4873211;29;20496;-72
2021/08/06 08:48:42;;;;;;;13.63;7.97;;;;;;;;;;4871149;29;20044;-74
2021/08/06 08:51:08;;;;;;;13.70;7.40;;;;;;;;;;4866247;29;20037;-73
2021/08/06 08:53:33;;;;;;;13.77;7.90;;;;;;;;;;4880062;29;20040;-73
2021/08/06 08:55:59;;;;;;;12.70;7.60;;;;;;;;;;4889202;29;20044;-71
2021/08/06 08:58:25;;;;;;;8.48;5.97;;;;;;;;;;4875930;29;20040;-73
2021/08/06 09:00:51;;;;;;;10.25;5.97;;;;;;;;;;4877870;29;20045;-72
2021/08/06 09:03:40;;;;;;;10.05;6.85;;;;;;;;;;4875682;29;20037;-72
2021/08/06 09:06:08;;;;;;;11.20;6.82;;;;;;;;;;4868807;29;20029;-74
2021/08/06 09:08:33;;;;;;;6.97;5.57;;;;;;;;;;4873536;29;20541;-72
2021/08/06 09:10:59;;;;;;;7.90;5.50;;;;;;;;;;4873594;29;20032;-73
2021/08/06 09:13:25;;;;;;;8.13;5.25;;;;;;;;;;4869062;29;20164;-73
2021/08/06 09:15:57;;;;;;;7.18;5.22;;;;;;;;;;4871162;29;20529;-72
2021/08/06 09:18:38;;;;;;;9.70;5.43;;;;;;;;;;4873729;29;20064;-72
2021/08/06 09:21:07;;;;;;;7.03;4.70;;;;;;;;;;4872794;29;20048;-74
2021/08/06 09:23:46;;;;;;;36.10;6.43;;;;;;;;;;4862225;29;20035;-73
2021/08/06 09:26:26;;;;;;;7.63;3.97;;;;;;;;;;4868276;29;20033;-72
2021/08/06 09:29:04;;;;;;;13.80;5.10;;;;;;;;;;4867999;29;20036;-74
2021/08/06 09:31:32;;;;;;;9.40;4.35;;;;;;;;;;4862988;29;20038;-73
2021/08/06 09:34:11;;;;;;;10.45;4.45;;;;;;;;;;4871460;29;20738;-74
2021/08/06 09:36:37;;;;;;;5.50;4.40;;;;;;;;;;4865173;29;20147;-73
2021/08/06 09:39:17;;;;;;;21.13;6.18;;;;;;;;;;4872391;29;20802;-74
2021/08/06 09:41:45;;;;;;;6.57;4.60;;;;;;;;;;4869589;29;20041;-73
2021/08/06 09:44:19;;;;;;;9.82;4.32;;;;;;;;;;4881785;29;20068;-73
2021/08/06 09:46:45;;;;;;;5.55;3.85;;;;;;;;;;4870493;29;20086;-76
2021/08/06 09:49:11;;;;;;;5.40;4.55;;;;;;;;;;4863202;29;20067;-74
2021/08/06 09:51:42;;;;;;;5.10;4.03;;;;;;;;;;4862140;29;20078;-73
2021/08/06 09:54:20;;;;;;;8.10;4.70;;;;;;;;;;4859950;29;20507;-75
2021/08/06 09:56:47;;;;;;;8.07;4.03;;;;;;;;;;4874965;29;20029;-72
2021/08/06 09:59:24;;;;;;;7.18;4.50;;;;;;;;;;4871202;29;20037;-72
2021/08/06 10:02:13;;;;;;;9.10;4.63;;;;;;;;;;4868434;29;20397;-72
2021/08/06 10:04:40;;;;;;;11.70;5.38;;;;;;;;;;4865062;29;20480;-73
2021/08/06 10:07:07;;;;;;;6.72;4.65;;;;;;;;;;4869798;29;20053;-73
2021/08/06 10:09:33;;;;;;;6.80;4.25;;;;;;;;;;4866508;29;20036;-74
2021/08/06 10:11:59;;;;;;;7.47;4.05;;;;;;;;;;4870206;29;20108;-74
2021/08/06 10:14:25;;;;;;;9.27;3.83;;;;;;;;;;4868847;29;20488;-73
2021/08/06 10:16:50;;;;;;;8.73;5.57;;;;;;;;;;4871528;29;20113;-73
2021/08/06 10:19:16;;;;;;;6.25;4.40;;;;;;;;;;4869658;29;20041;-74
2021/08/06 10:21:42;;;;;;;5.00;3.90;;;;;;;;;;4883296;29;20386;-73
2021/08/06 10:24:14;;;;;;;6.40;4.15;;;;;;;;;;4882590;29;20060;-74
2021/08/06 10:26:47;;;;;;;6.40;5.80;;;;;;;;;;4867014;29;20036;-74
2021/08/06 10:29:14;;;;;;;6.95;3.33;;;;;;;;;;4871660;29;20055;-73
2021/08/06 10:31:40;;;;;;;13.60;5.55;;;;;;;;;;4870368;29;20072;-73
2021/08/06 10:34:11;;;;;;;10.07;3.88;;;;;;;;;;4868008;29;20683;-74
2021/08/06 10:36:49;;;;;;;7.45;4.32;;;;;;;;;;4868835;29;20052;-74
2021/08/06 10:39:38;;;;;;;8.02;3.58;;;;;;;;;;4866222;29;20078;-71
2021/08/06 10:42:05;;;;;;;6.90;5.30;;;;;;;;;;4868361;29;20519;-72
2021/08/06 10:44:56;;;;;;;5.45;4.07;;;;;;;;;;4869381;29;20695;-74
2021/08/06 10:47:22;;;;;;;5.00;3.20;;;;;;;;;;4870396;29;20168;-72
2021/08/06 10:50:33;;;;;;;5.55;3.25;;;;;;;;;;4867153;29;20033;-73
2021/08/06 10:53:22;;;;;;;6.60;4.20;;;;;;;;;;4868616;29;20048;-73
2021/08/06 10:56:16;;;;;;;4.78;3.25;;;;;;;;;;4866680;29;20037;-75
2021/08/06 10:59:13;;;;;;;5.57;3.58;;;;;;;;;;4867324;29;20478;-74
2021/08/06 11:01:48;;;;;;;6.30;3.90;;;;;;;;;;4865687;29;20049;-74
2021/08/06 11:04:16;;;;;;;2.95;2.67;;;;;;;;;;4869420;29;20028;-74
2021/08/06 11:06:48;;;;;;;5.32;3.85;;;;;;;;;;4870033;29;20124;-73
2021/08/06 11:11:58;;;;;;;6.28;3.45;;;;;;;;;;4870462;29;20044;-72
2021/08/06 11:14:30;;;;;;;5.70;3.88;;;;;;;;;;4872195;29;20033;-72
2021/08/06 11:17:21;;;;;;;5.22;3.95;;;;;;;;;;4883876;29;20049;-71
2021/08/06 11:19:51;;;;;;;18.38;3.22;;;;;;;;;;4870137;29;20137;-74
2021/08/06 11:22:16;;;;;;;5.47;4.22;;;;;;;;;;4868576;29;20037;-72
2021/08/06 11:24:44;;;;;;;4.78;3.13;;;;;;;;;;4871522;29;20025;-73
2021/08/06 11:27:11;;;;;;;5.10;3.30;;;;;;;;;;4871273;29;20053;-72
2021/08/06 11:29:37;;;;;;;3.60;2.70;;;;;;;;;;4869165;29;20031;-75
2021/08/06 11:32:08;;;;;;;7.13;3.80;;;;;;;;;;4868154;29;20139;-73
2021/08/06 11:34:58;;;;;;;6.95;2.72;;;;;;;;;;4880749;29;20290;-73
2021/08/06 11:37:44;;;;;;;5.25;2.45;;;;;;;;;;4868686;29;20176;-73
2021/08/06 11:40:12;;;;;;;5.10;2.88;;;;;;;;;;4866485;29;20632;-74
2021/08/06 11:42:39;;;;;;;5.43;2.90;;;;;;;;;;4861493;29;20174;-74
2021/08/06 11:45:11;;;;;;;13.35;5.10;;;;;;;;;;4868654;29;20040;-72
2021/08/06 11:47:41;;;;;;;4.13;2.53;;;;;;;;;;4870155;29;20029;-74
2021/08/06 11:50:09;;;;;;;5.07;2.45;;;;;;;;;;4866283;29;20457;-74
2021/08/06 11:52:47;;;;;;;2.53;2.10;;;;;;;;;;4882085;29;20033;-73
2021/08/06 11:55:29;;;;;;;3.50;2.40;;;;;;;;;;4873930;29;20025;-73
2021/08/06 11:57:56;;;;;;;6.47;2.15;;;;;;;;;;4868355;29;20105;-74
2021/08/06 12:00:26;;;;;;;2.92;2.13;;;;;;;;;;4874607;29;20135;-74
2021/08/06 12:03:09;;;;;;;3.83;2.22;;;;;;;;;;4872394;29;20077;-75
2021/08/06 12:05:38;;;;;;;4.75;2.13;;;;;;;;;;4869388;29;20033;-74
2021/08/06 12:08:16;;;;;;;5.68;2.30;;;;;;;;;;4869112;29;20036;-74
2021/08/06 12:10:43;;;;;;;3.83;2.15;;;;;;;;;;4871014;29;20039;-74
2021/08/06 12:13:15;;;;;;;14.00;2.65;;;;;;;;;;4869498;29;20076;-73
2021/08/06 12:15:42;;;;;;;3.92;2.20;;;;;;;;;;4865755;29;20060;-74
2021/08/06 12:18:14;;;;;;;2.45;2.20;;;;;;;;;;4868967;29;20060;-73
2021/08/06 12:20:47;;;;;;;2.03;1.60;;;;;;;;;;4868751;29;20493;-74
2021/08/06 12:23:17;;;;;;;8.48;2.30;;;;;;;;;;4868537;29;20517;-75
2021/08/06 12:26:25;;;;;;;9.23;2.37;;;;;;;;;;4867408;29;20101;-75
2021/08/06 12:29:06;;;;;;;3.35;3.10;;;;;;;;;;4862079;29;20357;-73
2021/08/06 12:31:31;;;;;;;3.25;2.47;;;;;;;;;;4873920;29;20049;-74
2021/08/06 12:34:07;;;;;;;2.55;1.75;;;;;;;;;;4868882;29;20044;-73
2021/08/06 12:36:35;;;;;;;3.65;2.55;;;;;;;;;;4868097;29;20033;-73
2021/08/06 12:39:15;;;;;;;5.53;1.83;;;;;;;;;;4864475;29;20116;-74
2021/08/06 12:41:42;;;;;;;2.58;2.33;;;;;;;;;;4870625;29;20029;-74
2021/08/06 12:44:29;;;;;;;2.10;1.63;;;;;;;;;;4865812;29;20067;-73
2021/08/06 12:47:16;;;;;;;4.60;2.10;;;;;;;;;;4862389;29;20036;-74
2021/08/06 12:50:03;;;;;;;2.30;2.10;;;;;;;;;;4863945;29;20065;-73
2021/08/06 12:52:37;;;;;;;2.97;2.67;;;;;;;;;;4868631;29;21119;-73
2021/08/06 12:55:18;;;;;;;3.03;2.13;;;;;;;;;;4865414;29;20120;-74
2021/08/06 12:57:53;;;;;;;2.30;2.10;;;;;;;;;;4868334;29;20037;-75
2021/08/06 13:00:29;;;;;;;9.15;2.28;;;;;;;;;;4872070;29;20074;-74
2021/08/06 13:03:08;;;;;;;4.38;3.13;;;;;;;;;;4866817;29;20123;-74
2021/08/06 13:05:55;;;;;;;3.20;2.13;;;;;;;;;;4881337;29;20639;-74
2021/08/06 13:08:28;;;;;;;2.80;2.20;;;;;;;;;;4857326;29;20053;-74
2021/08/06 13:11:03;;;;;;;6.22;2.30;;;;;;;;;;4869339;29;20033;-75
2021/08/06 13:13:44;;;;;;;3.00;2.40;;;;;;;;;;4885457;29;20037;-72
2021/08/06 13:16:12;;;;;;;2.83;2.35;;;;;;;;;;4880803;29;20033;-75
2021/08/06 13:18:37;;;;;;;3.95;2.53;;;;;;;;;;4870565;29;20041;-75
2021/08/06 13:21:04;;;;;;;3.88;2.55;;;;;;;;;;4869418;29;20037;-74
2021/08/06 13:23:29;;;;;;;214.35;15.20;;;;;;;;;;4871402;29;20138;-74
2021/08/06 13:25:55;;;;;;;8.48;2.67;;;;;;;;;;4867252;29;20086;-74
2021/08/06 13:28:21;;;;;;;4.50;2.30;;;;;;;;;;4867274;29;20096;-75
2021/08/06 13:30:47;;;;;;;49.92;5.93;;;;;;;;;;4870523;29;20104;-74
2021/08/06 13:33:12;;;;;;;8.30;4.10;;;;;;;;;;4881962;29;20125;-74
2021/08/06 13:35:39;;;;;;;19.20;4.18;;;;;;;;;;4872070;29;20488;-74
2021/08/06 13:38:05;;;;;;;5.03;2.92;;;;;;;;;;4866639;29;20059;-75
2021/08/06 13:40:33;;;;;;;13.25;3.28;;;;;;;;;;4870260;29;20463;-73
2021/08/06 13:42:59;;;;;;;3.22;2.42;;;;;;;;;;4869779;29;20132;-73
2021/08/06 13:45:25;;;;;;;12.43;2.75;;;;;;;;;;4876201;29;20062;-72
2021/08/06 13:47:51;;;;;;;2.30;2.10;;;;;;;;;;4885255;29;20276;-75
2021/08/06 13:50:17;;;;;;;6.95;2.83;;;;;;;;;;4873411;29;20025;-74
2021/08/06 13:52:43;;;;;;;5.38;2.88;;;;;;;;;;4872486;29;20040;-74
2021/08/06 13:55:09;;;;;;;3.35;2.90;;;;;;;;;;4871837;29;20454;-73
2021/08/06 13:57:36;;;;;;;3.75;3.10;;;;;;;;;;4874585;29;20086;-74
2021/08/06 14:00:03;;;;;;;5.75;2.17;;;;;;;;;;4874474;29;20071;-74
2021/08/06 14:02:28;;;;;;;25.85;6.75;;;;;;;;;;4871145;29;20737;-75
2021/08/06 14:04:54;;;;;;;6.30;2.85;;;;;;;;;;4872751;29;20131;-75
2021/08/06 14:07:19;;;;;;;4.22;2.40;;;;;;;;;;4872927;29;20061;-74
2021/08/06 14:09:46;;;;;;;4.93;2.47;;;;;;;;;;4872250;29;20124;-75
2021/08/06 14:12:14;;;;;;;4.60;2.90;;;;;;;;;;4885789;29;20032;-74
2021/08/06 14:14:41;;;;;;;7.47;2.90;;;;;;;;;;4873516;29;20440;-73
2021/08/06 14:17:06;;;;;;;4.57;3.08;;;;;;;;;;4874634;29;20105;-73
2021/08/06 14:19:32;;;;;;;3.55;3.00;;;;;;;;;;4872257;29;20509;-74
2021/08/06 14:21:59;;;;;;;6.88;2.90;;;;;;;;;;4874515;29;20055;-73
2021/08/06 14:24:25;;;;;;;5.75;3.22;;;;;;;;;;4877547;29;20036;-74
2021/08/06 14:26:50;;;;;;;10.65;3.25;;;;;;;;;;4876468;29;20385;-74
2021/08/06 14:29:18;;;;;;;9.30;4.13;;;;;;;;;;4878988;29;20330;-76
2021/08/06 14:31:43;;;;;;;7.85;3.55;;;;;;;;;;4870373;29;20040;-73
2021/08/06 14:34:09;;;;;;;7.13;3.53;;;;;;;;;;4877039;29;20112;-73
2021/08/06 14:36:35;;;;;;;9.55;4.60;;;;;;;;;;4874972;29;20048;-73
2021/08/06 14:39:05;;;;;;;8.20;4.93;;;;;;;;;;4879436;29;20045;-73
2021/08/06 14:41:35;;;;;;;11.35;5.53;;;;;;;;;;4873393;29;20148;-74
2021/08/06 14:44:03;;;;;;;7.28;4.63;;;;;;;;;;4869835;29;20136;-74
2021/08/06 14:46:30;;;;;;;10.68;6.22;;;;;;;;;;4872101;29;20028;-74
2021/08/06 14:48:55;;;;;;;16.25;7.20;;;;;;;;;;4870070;29;20542;-74
2021/08/06 14:51:20;;;;;;;9.93;6.35;;;;;;;;;;4869610;29;20140;-73
2021/08/06 14:53:46;;;;;;;6.43;4.80;;;;;;;;;;4876789;29;20033;-72